WetterOnline ( https://www.wetteronline.de )

Wetter aktuell Remptendorf

Aktuelles Wetter: Schleiz (502m)

6-stündlich | Neueste Meldungen
Ortszeit Temperatur Wetter
Mi, 03.03. 19:00 7.1° C leicht bewölkt
Mi, 03.03. 13:00 11.7° C leicht bewölkt
Mi, 03.03. 7:00 1.6° C wolkenlos
Mi, 03.03. 1:00 4.5° C wolkenlos
Di, 02.03. 19:00 7.8° C wolkenlos
Di, 02.03. 13:00 12.7° C wolkenlos
Di, 02.03. 7:00 0.9° C wolkenlos
Di, 02.03. 1:00 1.4° C wolkenlos
Ortszeit Temperatur Wetter
Mi, 03.03. 19:30 6.8° C fast wolkenlos
Mi, 03.03. 19:20 6.8° C fast wolkenlos
Mi, 03.03. 19:10 6.9° C fast wolkenlos
Mi, 03.03. 19:00 7.1° C leicht bewölkt
Mi, 03.03. 18:50 7.1° C leicht bewölkt
Mi, 03.03. 18:40 7.5° C fast wolkenlos
Mi, 03.03. 18:30 8.0° C leicht bewölkt
Mi, 03.03. 18:00 8.8° C leicht bewölkt
Ortszeit Relative Feuchte Sichtweite
Mi, 03.03. 19:00 70% 18 km
Mi, 03.03. 13:00 49% 35 km
Mi, 03.03. 7:00 75% 28 km
Mi, 03.03. 1:00 57% 40 km
Di, 02.03. 19:00 59% 35 km
Di, 02.03. 13:00 43% 40 km
Di, 02.03. 7:00 79% 45 km
Di, 02.03. 1:00 83% 23 km
Ortszeit Relative Feuchte Sichtweite
Mi, 03.03. 19:30 71% 16 km
Mi, 03.03. 19:20 71% -
Mi, 03.03. 19:10 71% -
Mi, 03.03. 19:00 70% 18 km
Mi, 03.03. 18:50 70% -
Mi, 03.03. 18:40 68% -
Mi, 03.03. 18:30 64% 22 km
Mi, 03.03. 18:00 60% 27 km
Ortszeit Niederschlagsmenge Niederschlagsart
Mi, 03.03. 19:00 0.0 l/m2 in 12 Std. -
Mi, 03.03. 13:00 0.0 l/m2 in 6 Std. -
Mi, 03.03. 7:00 0.0 l/m2 in 12 Std. -
Mi, 03.03. 1:00 0.0 l/m2 in 6 Std. -
Di, 02.03. 19:00 0.0 l/m2 in 12 Std. -
Di, 02.03. 13:00 0.0 l/m2 in 6 Std. -
Di, 02.03. 7:00 0.0 l/m2 in 12 Std. -
Di, 02.03. 1:00 0.0 l/m2 in 6 Std. -
Ortszeit Niederschlagsmenge Niederschlagsart
Mi, 03.03. 19:30 0.0 l/m2 in 1 Std. -
Mi, 03.03. 19:20 keine Meldung -
Mi, 03.03. 19:10 keine Meldung -
Mi, 03.03. 19:00 0.0 l/m2 in 1 Std. -
Mi, 03.03. 18:50 keine Meldung -
Mi, 03.03. 18:40 keine Meldung -
Mi, 03.03. 18:30 0.0 l/m2 in 1 Std. -
Mi, 03.03. 18:00 0.0 l/m2 in 1 Std. -
Ortszeit Stärke Spitze Richtung
km/h Bft. km/h Grad Sektor
Mi, 03.03. 19:00 14 3 25 240° SW
Mi, 03.03. 13:00 7 2 18 240° SW
Mi, 03.03. 7:00 14 3 22 180° S
Mi, 03.03. 1:00 13 3 20 190° S
Di, 02.03. 19:00 11 2 22 120° SO
Di, 02.03. 13:00 14 3 29 180° S
Di, 02.03. 7:00 7 2 14 190° S
Di, 02.03. 1:00 7 2 14 190° S
Ortszeit Stärke Spitze Richtung
km/h Bft. km/h Grad Sektor
Mi, 03.03. 19:30 15 3 20 250° W
Mi, 03.03. 19:20 15 3 - 250° W
Mi, 03.03. 19:10 14 3 - 250° W
Mi, 03.03. 19:00 14 3 25 240° SW
Mi, 03.03. 18:50 14 3 - 240° SW
Mi, 03.03. 18:40 17 3 - 230° SW
Mi, 03.03. 18:30 15 3 24 210° SW
Mi, 03.03. 18:00 13 3 26 210° SW
Ortszeit Untergrenze Bedeckung Gattung
total tief tief mittel hoch
Mi, 03.03. 19:00 9000 m 3/8 0/8 - - -
Mi, 03.03. 13:00 7800 m 5/8 0/8 - - -
Mi, 03.03. 7:00 - 0/8 0/8 - - -
Mi, 03.03. 1:00 - 0/8 0/8 - - -
Di, 02.03. 19:00 - 0/8 0/8 - - -
Di, 02.03. 13:00 - 0/8 0/8 - - -
Di, 02.03. 7:00 - 0/8 0/8 - - -
Di, 02.03. 1:00 - 0/8 0/8 - - -
Ortszeit Bedeckungsgrad in Achtel und Wolkenuntergrenze
Mi, 03.03. 19:30 1(9000m)
Mi, 03.03. 19:20 1(9000m)
Mi, 03.03. 19:10 2(9000m)
Mi, 03.03. 19:00 3(9000m)
Mi, 03.03. 18:50 3(9000m)
Mi, 03.03. 18:40 2(9000m)
Mi, 03.03. 18:30 3(9000m)
Mi, 03.03. 18:00 1(3000m) 3(9000m)
Ortszeit Luftdruck NN (hPa) Tendenz (hPa in 3 Std.)
Mi, 03.03. 19:00 1026 - 1,0
Mi, 03.03. 13:00 1028 - 0,8
Mi, 03.03. 7:00 1032 - 0,1
Mi, 03.03. 1:00 1033 - 0,5
Di, 02.03. 19:00 1032 + 0,1
Di, 02.03. 13:00 1032 - 0,9
Di, 02.03. 7:00 1035 + 0,3
Di, 02.03. 1:00 1035 - 0,1
Ortszeit Luftdruck NN (hPa) Tendenz (hPa in 3 Std.)
Mi, 03.03. 19:30 1026 - 0,8
Mi, 03.03. 19:20 1026 keine Meldung
Mi, 03.03. 19:10 1026 keine Meldung
Mi, 03.03. 19:00 1026 - 1,0
Mi, 03.03. 18:50 1026 keine Meldung
Mi, 03.03. 18:40 1026 keine Meldung
Mi, 03.03. 18:30 1026 - 1,3
Mi, 03.03. 18:00 1026 - 1,7
Ortszeit Schneehöhe (cm)
Mi, 03.03. 19:00 0
Mi, 03.03. 13:00 0
Mi, 03.03. 7:00 0
Mi, 03.03. 1:00 0
Di, 02.03. 19:00 0
Di, 02.03. 13:00 0
Di, 02.03. 7:00 0
Di, 02.03. 1:00 0
Ortszeit Schneehöhe (cm)
Mi, 03.03. 19:30 0
Mi, 03.03. 19:20 0
Mi, 03.03. 19:10 0
Mi, 03.03. 19:00 0
Mi, 03.03. 18:50 0
Mi, 03.03. 18:40 0
Mi, 03.03. 18:30 0
Mi, 03.03. 18:00 0
Link zu dieser Seite / Seite empfehlen

Das Wetter in ...